Time;durP1;ratioP1;P1;durP2;ratioP2;P2;SDS_P1;SDS_P2;PMS_P1;PMS_P2;Temp;Humidity;BMP_temperature;BMP_pressure;BME280_temperature;BME280_humidity;BME280_pressure;Samples;Min_cycle;Max_cycle;Signal;HPM_P1;HPM_P2
2023/11/20 00:01:46;;;;;;;;;;;;;;;16.72;40.81;100487.22;5098682;28;1154;-40
2023/11/20 00:04:12;;;;;;;;;;;;;;;16.48;41.15;100485.47;5098282;28;1906;-41
2023/11/20 00:06:38;;;;;;;;;;;;;;;17.45;39.31;100474.50;5098183;28;1078;-41
2023/11/20 00:09:04;;;;;;;;;;;;;;;16.78;40.46;100475.28;5098238;28;1061;-40
2023/11/20 00:11:29;;;;;;;;;;;;;;;16.90;40.59;100476.09;5097937;28;1128;-41
2023/11/20 00:13:55;;;;;;;;;;;;;;;17.09;40.01;100480.84;5097962;28;1058;-40
2023/11/20 00:16:20;;;;;;;;;;;;;;;16.52;41.38;100478.97;5098606;28;1160;-41
2023/11/20 00:18:46;;;;;;;;;;;;;;;16.59;41.27;100484.66;5098685;28;1193;-43
2023/11/20 00:21:12;;;;;;;;;;;;;;;17.36;39.46;100484.06;5097748;28;864;-42
2023/11/20 00:23:38;;;;;;;;;;;;;;;16.62;40.68;100480.91;5098041;28;1910;-40
2023/11/20 00:26:05;;;;;;;;;;;;;;;16.34;41.44;100478.59;5098170;28;1145;-44
2023/11/20 00:28:30;;;;;;;;;;;;;;;17.08;40.09;100478.28;5097668;28;1097;-43
2023/11/20 00:30:56;;;;;;;;;;;;;;;16.95;40.14;100481.06;5098184;28;1078;-42
2023/11/20 00:33:21;;;;;;;;;;;;;;;16.44;41.31;100480.53;5097783;28;1078;-42
2023/11/20 00:35:47;;;;;;;;;;;;;;;16.68;40.85;100474.28;5097911;28;1124;-44
2023/11/20 00:38:12;;;;;;;;;;;;;;;17.37;39.18;100473.31;5097440;28;1094;-40
2023/11/20 00:40:38;;;;;;;;;;;;;;;16.68;40.73;100479.59;5096302;28;1059;-43
2023/11/20 00:43:04;;;;;;;;;;;;;;;16.27;41.58;100478.22;5098160;28;1153;-40
2023/11/20 00:45:29;;;;;;;;;;;;;;;16.14;42.03;100480.09;5097104;28;1969;-41
2023/11/20 00:47:55;;;;;;;;;;;;;;;17.29;39.70;100483.72;5097366;28;1085;-42
2023/11/20 00:50:20;;;;;;;;;;;;;;;16.71;40.36;100482.88;5097598;28;1190;-41
2023/11/20 00:52:46;;;;;;;;;;;;;;;16.28;41.48;100471.94;5130127;27;1199;-41
2023/11/20 00:55:12;;;;;;;;;;;;;;;16.06;41.81;100463.91;5097703;28;1120;-42
2023/11/20 00:57:38;;;;;;;;;;;;;;;17.19;39.79;100474.78;5129519;27;1014;-44
2023/11/20 01:00:06;;;;;;;;;;;;;;;17.15;39.61;100481.31;5097516;28;1077;-44
2023/11/20 01:02:32;;;;;;;;;;;;;;;16.58;40.84;100480.31;5094973;28;1209;-44
2023/11/20 01:04:57;;;;;;;;;;;;;;;16.27;41.40;100475.56;5097249;28;1901;-41
2023/11/20 01:07:23;;;;;;;;;;;;;;;17.37;39.48;100470.66;5096188;28;1283;-43
2023/11/20 01:09:49;;;;;;;;;;;;;;;16.86;40.24;100472.00;5097055;28;878;-41
2023/11/20 01:12:15;;;;;;;;;;;;;;;16.38;41.21;100477.38;5096717;28;1161;-43
2023/11/20 01:14:40;;;;;;;;;;;;;;;16.37;41.25;100475.69;5097098;28;1055;-41
2023/11/20 01:17:06;;;;;;;;;;;;;;;17.31;39.28;100459.66;5096256;28;1037;-42
2023/11/20 01:19:32;;;;;;;;;;;;;;;16.61;40.57;100460.66;5097225;28;1074;-42
2023/11/20 01:21:57;;;;;;;;;;;;;;;16.25;41.56;100458.03;5096207;28;1173;-44
2023/11/20 01:24:23;;;;;;;;;;;;;;;16.93;40.33;100461.75;5097133;28;1984;-42
2023/11/20 01:26:49;;;;;;;;;;;;;;;16.92;40.02;100468.00;5083461;28;1098;-41
2023/11/20 01:29:14;;;;;;;;;;;;;;;16.37;41.01;100467.72;5096512;28;1172;-42
2023/11/20 01:31:40;;;;;;;;;;;;;;;16.03;41.76;100457.03;5096485;28;991;-43
2023/11/20 01:34:05;;;;;;;;;;;;;;;17.10;39.70;100463.91;5079323;28;868;-43
2023/11/20 01:36:31;;;;;;;;;;;;;;;16.86;40.21;100467.53;5093501;28;1137;-40
2023/11/20 01:38:56;;;;;;;;;;;;;;;16.34;41.25;100469.78;5096428;28;1117;-41
2023/11/20 01:41:22;;;;;;;;;;;;;;;16.23;41.65;100463.47;5108972;28;1009;-43
2023/11/20 01:43:47;;;;;;;;;;;;;;;17.42;39.04;100464.94;5086885;28;1979;-44
2023/11/20 01:46:13;;;;;;;;;;;;;;;16.88;39.93;100465.59;5077696;28;883;-42
2023/11/20 01:48:39;;;;;;;;;;;;;;;16.41;41.04;100457.72;5112157;28;1268;-42
2023/11/20 01:51:05;;;;;;;;;;;;;;;16.48;41.10;100455.44;5096110;28;1166;-40
2023/11/20 01:53:30;;;;;;;;;;;;;;;17.14;39.54;100461.88;5045330;28;1082;-42
2023/11/20 01:55:56;;;;;;;;;;;;;;;16.49;40.83;100454.47;5094533;28;1128;-45
2023/11/20 01:58:22;;;;;;;;;;;;;;;16.93;40.29;100457.28;5070793;28;968;-41
2023/11/20 02:00:47;;;;;;;;;;;;;;;16.94;39.87;100455.44;5098482;28;1184;-44
2023/11/20 02:03:13;;;;;;;;;;;;;;;16.47;40.76;100459.03;5084741;28;1156;-39
2023/11/20 02:05:38;;;;;;;;;;;;;;;17.28;39.43;100455.44;5093030;28;1906;-40
2023/11/20 02:08:04;;;;;;;;;;;;;;;16.86;39.93;100462.22;5096161;28;1105;-44
2023/11/20 02:10:29;;;;;;;;;;;;;;;16.38;40.84;100455.31;5081005;28;1262;-42
2023/11/20 02:12:58;;;;;;;;;;;;;;;16.31;41.06;100456.75;5096300;28;1137;-43
2023/11/20 02:15:24;;;;;;;;;;;;;;;17.38;39.21;100448.38;5100529;28;1117;-43
2023/11/20 02:17:49;;;;;;;;;;;;;;;16.71;40.16;100453.66;5099415;28;1165;-43
2023/11/20 02:20:15;;;;;;;;;;;;;;;16.31;41.37;100439.00;5133271;27;1137;-45
2023/11/20 02:22:40;;;;;;;;;;;;;;;17.38;39.21;100444.91;5098733;28;877;-42
2023/11/20 02:25:07;;;;;;;;;;;;;;;16.99;39.59;100454.13;5100268;28;1913;-42
2023/11/20 02:27:35;;;;;;;;;;;;;;;16.45;40.82;100450.38;5100236;28;1186;-41
2023/11/20 02:30:03;;;;;;;;;;;;;;;16.20;41.46;100450.44;5099924;28;1074;-40
2023/11/20 02:32:29;;;;;;;;;;;;;;;16.38;41.37;100448.19;5100284;28;1161;-44
2023/11/20 02:34:54;;;;;;;;;;;;;;;17.41;39.09;100457.94;5098525;28;957;-43
2023/11/20 02:37:20;;;;;;;;;;;;;;;16.64;40.22;100452.44;5099999;28;1070;-43
2023/11/20 02:39:49;;;;;;;;;;;;;;;16.33;41.29;100460.94;5099860;28;1057;-43
2023/11/20 02:42:15;;;;;;;;;;;;;;;16.81;40.35;100466.19;5099961;28;1034;-45
2023/11/20 02:44:40;;;;;;;;;;;;;;;17.42;38.97;100472.94;5098433;28;1902;-48
2023/11/20 02:47:06;;;;;;;;;;;;;;;16.69;40.46;100468.00;5100484;28;1315;-44
2023/11/20 02:49:33;;;;;;;;;;;;;;;16.50;40.90;100469.44;5095413;28;1284;-47
2023/11/20 02:52:06;;;;;;;;;;;;;;;17.39;38.96;100462.53;5126109;27;1374;-47
2023/11/20 02:54:35;;;;;;;;;;;;;;;16.69;40.32;100458.25;5099877;28;1146;-45
2023/11/20 02:57:01;;;;;;;;;;;;;;;16.27;40.98;100451.66;5118845;27;1305;-46
2023/11/20 02:59:28;;;;;;;;;;;;;;;16.77;40.50;100450.50;5099628;28;1075;-41
2023/11/20 03:01:56;;;;;;;;;;;;;;;17.01;39.56;100457.50;5099468;28;1070;-44
2023/11/20 03:04:22;;;;;;;;;;;;;;;16.42;41.02;100451.44;5098023;28;1918;-45
2023/11/20 03:06:47;;;;;;;;;;;;;;;16.48;40.89;100456.28;5099365;28;1050;-45
2023/11/20 03:09:13;;;;;;;;;;;;;;;17.24;39.21;100452.19;5099540;28;1220;-44
2023/11/20 03:11:38;;;;;;;;;;;;;;;16.60;40.68;100454.47;5098085;28;1188;-44
2023/11/20 03:14:04;;;;;;;;;;;;;;;16.91;40.14;100461.00;5099564;28;1066;-42
2023/11/20 03:16:30;;;;;;;;;;;;;;;17.15;39.43;100465.38;5099260;28;1002;-40
2023/11/20 03:18:57;;;;;;;;;;;;;;;16.49;40.98;100455.31;5098103;28;1147;-44
2023/11/20 03:21:24;;;;;;;;;;;;;;;16.23;41.37;100455.50;5098970;28;1252;-43
2023/11/20 03:23:49;;;;;;;;;;;;;;;16.38;41.45;100450.84;5098076;28;1973;-43
2023/11/20 03:26:18;;;;;;;;;;;;;;;17.23;39.16;100450.47;5098237;28;1354;-43
2023/11/20 03:28:44;;;;;;;;;;;;;;;16.55;40.68;100451.34;5097869;28;1114;-41
2023/11/20 03:31:09;;;;;;;;;;;;;;;16.44;41.23;100444.22;5098950;28;1117;-46
2023/11/20 03:33:35;;;;;;;;;;;;;;;17.17;39.32;100453.63;5131397;27;1085;-43
2023/11/20 03:36:00;;;;;;;;;;;;;;;16.53;40.72;100443.50;5130269;27;1402;-44
2023/11/20 03:38:26;;;;;;;;;;;;;;;16.42;40.91;100430.22;5099199;28;1010;-41
2023/11/20 03:40:52;;;;;;;;;;;;;;;17.50;38.78;100425.28;5099153;28;1050;-42
2023/11/20 03:43:19;;;;;;;;;;;;;;;16.88;39.88;100417.75;5097538;28;1067;-42
2023/11/20 03:45:45;;;;;;;;;;;;;;;16.41;40.94;100412.59;5098896;28;1980;-43
2023/11/20 03:48:10;;;;;;;;;;;;;;;17.09;39.86;100417.06;5098945;28;1189;-41
2023/11/20 03:50:36;;;;;;;;;;;;;;;17.00;39.50;100415.09;5098760;28;1010;-42
2023/11/20 03:53:02;;;;;;;;;;;;;;;16.42;40.66;100406.31;5093696;28;1229;-39
2023/11/20 03:55:27;;;;;;;;;;;;;;;16.19;41.46;100406.28;5084610;28;1086;-38
2023/11/20 03:57:53;;;;;;;;;;;;;;;17.35;39.19;100403.44;5096988;28;1356;-45
2023/11/20 04:00:18;;;;;;;;;;;;;;;16.90;39.87;100399.03;5098689;28;1041;-50
2023/11/20 04:02:44;;;;;;;;;;;;;;;16.43;41.00;100408.03;5098471;28;1178;-50
2023/11/20 04:05:09;;;;;;;;;;;;;;;16.13;41.35;100410.25;5098405;28;1918;-48
2023/11/20 04:07:36;;;;;;;;;;;;;;;16.97;39.84;100404.72;5098518;28;1210;-50
2023/11/20 04:10:01;;;;;;;;;;;;;;;17.05;39.41;100410.25;5098172;28;1149;-49
2023/11/20 04:12:28;;;;;;;;;;;;;;;16.49;40.82;100414.66;5130837;27;1374;-49
2023/11/20 04:14:53;;;;;;;;;;;;;;;16.14;41.51;100432.34;5089085;28;1458;-47
2023/11/20 04:17:19;;;;;;;;;;;;;;;16.76;40.20;100426.72;5091361;28;1334;-48
2023/11/20 04:19:44;;;;;;;;;;;;;;;17.18;39.37;100420.78;5096849;28;1210;-50
2023/11/20 04:22:10;;;;;;;;;;;;;;;16.59;40.56;100422.72;5122690;27;1361;-47
2023/11/20 04:24:35;;;;;;;;;;;;;;;16.40;40.91;100419.72;5096341;28;1898;-44
2023/11/20 04:27:01;;;;;;;;;;;;;;;17.15;39.31;100420.19;5097822;28;1015;-48
2023/11/20 04:29:27;;;;;;;;;;;;;;;16.53;40.44;100421.41;5093722;28;2522;-45
2023/11/20 04:31:53;;;;;;;;;;;;;;;16.16;41.27;100419.81;5097780;28;999;-47
2023/11/20 04:34:19;;;;;;;;;;;;;;;16.93;39.69;100419.22;5097043;28;1049;-48
2023/11/20 04:36:44;;;;;;;;;;;;;;;16.94;39.67;100400.50;5096729;28;1054;-46
2023/11/20 04:39:10;;;;;;;;;;;;;;;16.43;40.80;100409.81;5097009;28;1116;-46
2023/11/20 04:41:36;;;;;;;;;;;;;;;16.97;39.68;100402.91;5095766;28;1038;-53
2023/11/20 04:44:01;;;;;;;;;;;;;;;16.84;39.94;100412.81;5096127;28;1906;-49
2023/11/20 04:46:27;;;;;;;;;;;;;;;16.36;40.67;100412.97;5094644;28;1359;-52
2023/11/20 04:48:52;;;;;;;;;;;;;;;17.24;39.26;100401.69;5097204;28;1124;-51
2023/11/20 04:51:18;;;;;;;;;;;;;;;16.93;39.65;100406.78;5091648;28;1083;-49
2023/11/20 04:53:44;;;;;;;;;;;;;;;16.41;40.48;100417.91;5097421;28;1129;-45
2023/11/20 04:56:10;;;;;;;;;;;;;;;16.15;41.32;100424.25;5097128;28;1090;-45
2023/11/20 04:58:36;;;;;;;;;;;;;;;17.10;39.58;100416.06;5096784;28;2444;-49
2023/11/20 05:01:02;;;;;;;;;;;;;;;16.74;39.85;100424.19;5097321;28;1038;-47
2023/11/20 05:03:28;;;;;;;;;;;;;;;16.28;40.54;100428.63;5096969;28;1035;-48
2023/11/20 05:05:53;;;;;;;;;;;;;;;16.74;40.13;100428.66;5096428;28;1989;-46
2023/11/20 05:08:19;;;;;;;;;;;;;;;16.96;39.58;100434.91;5096971;28;1237;-50
2023/11/20 05:10:45;;;;;;;;;;;;;;;16.38;40.60;100440.22;5096479;28;1132;-50
2023/11/20 05:13:10;;;;;;;;;;;;;;;17.99;37.07;100451.44;5097112;28;1034;-49
2023/11/20 05:15:36;;;;;;;;;;;;;;;18.43;35.94;100452.31;5096355;28;1062;-50
2023/11/20 05:18:02;;;;;;;;;;;;;;;16.80;39.67;100462.69;5096732;28;1150;-51
2023/11/20 05:20:29;;;;;;;;;;;;;;;17.46;38.14;100452.25;5096969;28;1026;-51
2023/11/20 05:22:55;;;;;;;;;;;;;;;18.27;36.51;100450.94;5099808;28;1018;-49
2023/11/20 05:25:20;;;;;;;;;;;;;;;17.99;36.66;100463.91;5096469;28;1917;-50
2023/11/20 05:27:46;;;;;;;;;;;;;;;17.12;38.77;100477.09;5096417;28;1114;-53
2023/11/20 05:30:12;;;;;;;;;;;;;;;17.80;37.95;100476.06;5096155;28;1840;-48
2023/11/20 05:32:38;;;;;;;;;;;;;;;14.39;45.09;100458.81;5096264;28;1003;-49
2023/11/20 05:35:03;;;;;;;;;;;;;;;15.26;43.40;100465.22;5096079;28;1170;-48
2023/11/20 05:37:30;;;;;;;;;;;;;;;15.33;42.45;100475.34;5096315;28;1050;-48
2023/11/20 05:39:55;;;;;;;;;;;;;;;15.06;42.54;100474.59;5095951;28;1022;-48
2023/11/20 05:42:21;;;;;;;;;;;;;;;15.13;42.53;100486.41;5096800;28;1030;-46
2023/11/20 05:44:46;;;;;;;;;;;;;;;14.92;42.49;100486.13;5095882;28;1901;-45
2023/11/20 05:47:12;;;;;;;;;;;;;;;15.87;41.92;100478.53;5096327;28;1105;-45
2023/11/20 05:49:37;;;;;;;;;;;;;;;15.22;43.08;100495.53;5096796;28;1062;-48
2023/11/20 05:52:04;;;;;;;;;;;;;;;14.98;42.83;100500.75;5096592;28;1146;-47
2023/11/20 05:54:29;;;;;;;;;;;;;;;14.80;42.97;100498.44;5096771;28;1156;-46
2023/11/20 05:56:55;;;;;;;;;;;;;;;14.78;42.67;100510.91;5096962;28;1113;-44
2023/11/20 05:59:20;;;;;;;;;;;;;;;14.61;42.51;100512.06;5096271;28;1074;-46
2023/11/20 06:01:47;;;;;;;;;;;;;;;15.90;42.17;100510.97;5096522;28;1140;-45
2023/11/20 06:04:14;;;;;;;;;;;;;;;15.10;43.00;100518.44;5096458;28;1982;-44
2023/11/20 06:06:39;;;;;;;;;;;;;;;14.78;43.15;100514.38;5096380;28;1015;-48
2023/11/20 06:09:05;;;;;;;;;;;;;;;14.68;43.01;100522.13;5096252;28;1157;-49
2023/11/20 06:11:31;;;;;;;;;;;;;;;14.60;43.05;100513.03;5095806;28;1235;-47
2023/11/20 06:14:00;;;;;;;;;;;;;;;15.40;43.00;100514.56;5096722;28;1011;-45
2023/11/20 06:16:26;;;;;;;;;;;;;;;15.04;43.25;100522.38;5096196;28;1162;-45
2023/11/20 06:18:51;;;;;;;;;;;;;;;14.66;43.34;100518.72;5096456;28;1054;-44
2023/11/20 06:21:17;;;;;;;;;;;;;;;14.59;43.10;100522.75;5129573;28;1114;-46
2023/11/20 06:23:42;;;;;;;;;;;;;;;14.50;42.66;100521.59;5095866;28;899;-46
2023/11/20 06:26:08;;;;;;;;;;;;;;;14.36;42.64;100525.19;5096347;28;1974;-43
2023/11/20 06:28:33;;;;;;;;;;;;;;;14.61;43.57;100534.09;5096221;28;1070;-45
2023/11/20 06:30:59;;;;;;;;;;;;;;;15.77;42.30;100529.59;5096553;28;1099;-46
2023/11/20 06:33:24;;;;;;;;;;;;;;;14.92;43.16;100532.03;5096548;28;1194;-44
2023/11/20 06:35:50;;;;;;;;;;;;;;;14.64;43.52;100527.75;5095732;28;1074;-44
2023/11/20 06:38:15;;;;;;;;;;;;;;;15.76;42.33;100525.28;5096553;28;1098;-43
2023/11/20 06:40:41;;;;;;;;;;;;;;;14.96;43.48;100531.81;5096354;28;1182;-44
2023/11/20 06:43:06;;;;;;;;;;;;;;;14.62;44.05;100529.63;5096298;28;1014;-46
2023/11/20 06:45:32;;;;;;;;;;;;;;;14.53;43.47;100533.78;5096034;28;1907;-45
2023/11/20 06:47:57;;;;;;;;;;;;;;;14.41;43.33;100533.63;5095541;28;1113;-46
2023/11/20 06:50:24;;;;;;;;;;;;;;;15.51;42.90;100535.00;5099366;28;1198;-41
2023/11/20 06:52:53;;;;;;;;;;;;;;;14.73;43.96;100528.91;5095679;28;1061;-42
2023/11/20 06:55:18;;;;;;;;;;;;;;;14.54;43.89;100532.81;5095970;28;1137;-43
2023/11/20 06:57:47;;;;;;;;;;;;;;;15.78;42.29;100518.03;5095969;28;1017;-43
2023/11/20 07:00:12;;;;;;;;;;;;;;;14.90;43.83;100523.31;5098638;28;967;-43
2023/11/20 07:02:38;;;;;;;;;;;;;;;14.64;43.70;100518.00;5099746;28;1065;-43
2023/11/20 07:05:04;;;;;;;;;;;;;;;14.40;43.99;100510.78;5098475;28;1967;-44
2023/11/20 07:07:30;;;;;;;;;;;;;;;15.52;42.97;100504.03;5099790;28;1160;-44
2023/11/20 07:09:55;;;;;;;;;;;;;;;14.79;43.78;100505.50;5099320;28;1209;-47
2023/11/20 07:12:21;;;;;;;;;;;;;;;14.54;44.03;100499.25;5099010;28;1114;-45
2023/11/20 07:14:46;;;;;;;;;;;;;;;14.45;43.82;100499.88;5099477;28;1046;-44
2023/11/20 07:17:13;;;;;;;;;;;;;;;15.21;43.62;100499.13;5092700;28;1196;-45
2023/11/20 07:19:41;;;;;;;;;;;;;;;14.58;43.92;100484.00;5086747;28;1496;-44
2023/11/20 07:22:08;;;;;;;;;;;;;;;14.52;43.74;100501.16;5093052;28;1135;-46
2023/11/20 07:24:33;;;;;;;;;;;;;;;15.00;44.12;100490.88;5098575;28;2371;-45
2023/11/20 07:26:58;;;;;;;;;;;;;;;15.01;43.94;100500.53;5099061;28;1165;-44
2023/11/20 07:29:24;;;;;;;;;;;;;;;14.59;44.14;100498.94;5098299;28;1120;-43
2023/11/20 07:31:49;;;;;;;;;;;;;;;15.55;42.92;100496.69;5093714;28;1140;-45
2023/11/20 07:34:16;;;;;;;;;;;;;;;15.25;43.43;100489.13;5099045;28;1113;-46
2023/11/20 07:36:41;;;;;;;;;;;;;;;14.72;43.91;100485.69;5091868;28;1069;-44
2023/11/20 07:39:07;;;;;;;;;;;;;;;14.51;43.97;100486.25;5088931;28;1300;-45
2023/11/20 07:41:33;;;;;;;;;;;;;;;14.45;43.77;100492.78;5098271;28;1086;-42
2023/11/20 07:43:58;;;;;;;;;;;;;;;15.04;43.73;100492.38;5098620;28;1918;-45
2023/11/20 07:46:24;;;;;;;;;;;;;;;15.13;43.87;100491.72;5081618;28;1086;-45
2023/11/20 07:48:50;;;;;;;;;;;;;;;14.64;44.04;100488.03;5084402;28;923;-44
2023/11/20 07:51:16;;;;;;;;;;;;;;;14.67;44.62;100486.03;5080623;28;1090;-42
2023/11/20 07:53:42;;;;;;;;;;;;;;;15.71;42.99;100479.66;5088361;28;1145;-45
2023/11/20 07:56:08;;;;;;;;;;;;;;;14.81;44.52;100478.97;5081761;28;1066;-46
2023/11/20 07:58:33;;;;;;;;;;;;;;;14.66;43.94;100479.00;5088802;28;1399;-47
2023/11/20 08:00:59;;;;;;;;;;;;;;;14.54;43.90;100485.16;5097923;28;940;-45
2023/11/20 08:03:25;;;;;;;;;;;;;;;14.88;44.46;100484.66;5097969;28;1042;-43
2023/11/20 08:05:50;;;;;;;;;;;;;;;14.93;44.21;100487.84;5094529;28;1934;-43
2023/11/20 08:08:16;;;;;;;;;;;;;;;14.51;44.28;100488.88;5094507;28;1079;-43
2023/11/20 08:10:41;;;;;;;;;;;;;;;15.53;43.73;100492.47;5082985;28;1196;-44
2023/11/20 08:13:07;;;;;;;;;;;;;;;15.03;44.01;100491.53;5098200;28;929;-44
2023/11/20 08:15:33;;;;;;;;;;;;;;;14.63;44.65;100486.34;5097827;28;1182;-46
2023/11/20 08:17:58;;;;;;;;;;;;;;;14.54;44.38;100490.47;5097880;28;1137;-47
2023/11/20 08:20:24;;;;;;;;;;;;;;;15.52;43.72;100480.16;5098149;28;1062;-46
2023/11/20 08:22:49;;;;;;;;;;;;;;;14.86;44.20;100483.94;5097919;28;1106;-43
2023/11/20 08:25:15;;;;;;;;;;;;;;;14.56;44.15;100485.91;5097108;28;1979;-48
2023/11/20 08:27:42;;;;;;;;;;;;;;;15.46;43.54;100489.41;5097453;28;1027;-48
2023/11/20 08:30:10;;;;;;;;;;;;;;;14.72;44.48;100493.63;5097809;28;1058;-45
2023/11/20 08:32:35;;;;;;;;;;;;;;;14.52;44.17;100489.72;5093490;28;1324;-46
2023/11/20 08:35:01;;;;;;;;;;;;;;;15.70;43.08;100483.25;5097911;28;1194;-46
2023/11/20 08:37:26;;;;;;;;;;;;;;;14.95;44.47;100487.75;5097548;28;1019;-44
2023/11/20 08:39:52;;;;;;;;;;;;;;;14.61;44.45;100485.59;5097819;28;1055;-43
2023/11/20 08:42:18;;;;;;;;;;;;;;;14.63;44.56;100486.34;5097546;28;1186;-43
2023/11/20 08:44:43;;;;;;;;;;;;;;;15.52;43.59;100481.00;5097223;28;1902;-40
2023/11/20 08:47:09;;;;;;;;;;;;;;;14.93;44.50;100470.13;5094228;28;1046;-46
2023/11/20 08:49:35;;;;;;;;;;;;;;;15.14;44.17;100463.44;5094890;28;1001;-48
2023/11/20 08:52:01;;;;;;;;;;;;;;;15.23;43.92;100453.97;5097620;28;1070;-46
2023/11/20 08:54:26;;;;;;;;;;;;;;;14.71;44.34;100451.38;5097471;28;1150;-47
2023/11/20 08:56:52;;;;;;;;;;;;;;;14.61;43.85;100451.19;5096739;28;1402;-42
2023/11/20 08:59:18;;;;;;;;;;;;;;;15.39;44.05;100446.59;5096434;28;1035;-44
2023/11/20 09:01:45;;;;;;;;;;;;;;;15.14;44.17;100437.78;5096653;28;994;-43
2023/11/20 09:04:10;;;;;;;;;;;;;;;14.68;44.41;100436.56;5097258;28;1984;-44
2023/11/20 09:06:36;;;;;;;;;;;;;;;14.55;43.97;100445.34;5097294;28;1432;-45
2023/11/20 09:09:02;;;;;;;;;;;;;;;14.48;44.07;100433.50;5097322;28;1154;-45
2023/11/20 09:11:31;;;;;;;;;;;;;;;14.30;43.57;100433.81;5096878;28;1030;-41
2023/11/20 09:13:57;;;;;;;;;;;;;;;15.17;43.60;100434.06;5097315;28;881;-45
2023/11/20 09:16:22;;;;;;;;;;;;;;;14.59;44.57;100431.91;5096957;28;1174;-43
2023/11/20 09:18:48;;;;;;;;;;;;;;;14.36;44.26;100427.28;5097256;28;1510;-45
2023/11/20 09:21:14;;;;;;;;;;;;;;;15.64;43.27;100439.50;5097362;28;1082;-43
2023/11/20 09:23:40;;;;;;;;;;;;;;;14.86;44.77;100438.91;5096519;28;1127;-41
2023/11/20 09:26:11;;;;;;;;;;;;;;;14.51;44.88;100435.94;5096123;28;1904;-42
2023/11/20 09:28:39;;;;;;;;;;;;;;;15.65;43.66;100427.06;5096622;28;1011;-42
2023/11/20 09:31:05;;;;;;;;;;;;;;;15.01;44.39;100427.22;5096703;28;1197;-44
2023/11/20 09:33:30;;;;;;;;;;;;;;;14.66;44.51;100425.25;5096490;28;1035;-45
2023/11/20 09:35:56;;;;;;;;;;;;;;;14.60;44.20;100417.72;5096539;28;1109;-45
2023/11/20 09:38:21;;;;;;;;;;;;;;;14.32;44.00;100415.19;5096499;28;1153;-44
2023/11/20 09:40:47;;;;;;;;;;;;;;;15.87;43.26;100421.03;5096555;28;1097;-46
2023/11/20 09:43:12;;;;;;;;;;;;;;;14.92;44.57;100419.91;5095363;28;1039;-44
2023/11/20 09:45:38;;;;;;;;;;;;;;;14.60;44.63;100421.22;5096566;28;1964;-41
2023/11/20 09:48:04;;;;;;;;;;;;;;;15.45;43.33;100421.44;5095942;28;1137;-44
2023/11/20 09:50:30;;;;;;;;;;;;;;;14.97;44.75;100403.69;5094760;28;1082;-45
2023/11/20 09:52:55;;;;;;;;;;;;;;;16.57;41.92;100403.41;5096570;28;1151;-45
2023/11/20 09:55:22;;;;;;;;;;;;;;;15.77;43.42;100398.78;5096056;28;1085;-43
2023/11/20 09:57:49;;;;;;;;;;;;;;;15.17;44.37;100394.31;5096719;28;1054;-44
2023/11/20 10:00:17;;;;;;;;;;;;;;;14.86;44.37;100392.09;5095801;28;1164;-43
2023/11/20 10:02:45;;;;;;;;;;;;;;;15.63;43.67;100399.84;5096141;28;1252;-44
2023/11/20 10:05:11;;;;;;;;;;;;;;;14.96;44.75;100389.63;5096403;28;1966;-44
2023/11/20 10:07:38;;;;;;;;;;;;;;;14.77;44.46;100382.09;5095810;28;1140;-41
2023/11/20 10:10:04;;;;;;;;;;;;;;;14.75;45.00;100379.56;5095533;28;1222;-42
2023/11/20 10:12:30;;;;;;;;;;;;;;;15.47;43.79;100384.22;5095597;28;1113;-43
2023/11/20 10:14:55;;;;;;;;;;;;;;;14.90;44.60;100390.03;5095030;28;1035;-42
2023/11/20 10:17:21;;;;;;;;;;;;;;;14.63;44.16;100391.88;5096263;28;1074;-44
2023/11/20 10:19:46;;;;;;;;;;;;;;;14.91;44.67;100386.47;5128629;27;1141;-42
2023/11/20 10:22:13;;;;;;;;;;;;;;;15.32;44.06;100392.34;5096016;28;1065;-44
2023/11/20 10:24:39;;;;;;;;;;;;;;;14.85;44.47;100398.31;5095932;28;1897;-45
2023/11/20 10:27:06;;;;;;;;;;;;;;;15.27;44.58;100400.63;5094382;28;1146;-45
2023/11/20 10:29:31;;;;;;;;;;;;;;;15.41;43.85;100380.22;5096377;28;1093;-45
2023/11/20 10:31:59;;;;;;;;;;;;;;;14.90;44.25;100366.22;5096035;28;1113;-41
2023/11/20 10:34:26;;;;;;;;;;;;;;;14.75;44.05;100365.47;5097955;28;1120;-41
2023/11/20 10:37:10;;;;;;;;;;;;;;;14.55;43.64;100354.50;5099565;28;1065;-45
2023/11/20 10:39:35;;;;;;;;;;;;;;;14.50;43.12;100346.91;5099982;28;1133;-42
2023/11/20 10:42:01;;;;;;;;;;;;;;;15.95;43.12;100345.31;5096368;28;1066;-44
2023/11/20 10:44:26;;;;;;;;;;;;;;;15.23;44.37;100337.38;5086216;28;1914;-43
2023/11/20 10:46:55;;;;;;;;;;;;;;;14.69;44.59;100330.56;5087890;28;1066;-43
2023/11/20 10:49:21;;;;;;;;;;;;;;;15.61;43.38;100336.31;5098050;28;1174;-45
2023/11/20 10:51:53;;;;;;;;;;;;;;;14.93;44.47;100335.06;5099685;28;1125;-42
2023/11/20 10:54:19;;;;;;;;;;;;;;;14.73;44.22;100333.81;5099121;28;1166;-42
2023/11/20 10:56:45;;;;;;;;;;;;;;;14.60;44.04;100343.63;5098599;28;1126;-43
2023/11/20 10:59:12;;;;;;;;;;;;;;;15.36;44.01;100342.63;5118896;27;1133;-43
2023/11/20 11:01:39;;;;;;;;;;;;;;;14.98;44.86;100345.31;5099464;28;1046;-44
2023/11/20 11:04:04;;;;;;;;;;;;;;;14.62;44.80;100342.53;5085644;28;1981;-42
2023/11/20 11:06:30;;;;;;;;;;;;;;;14.55;44.03;100344.78;5082823;28;1129;-42
2023/11/20 11:08:55;;;;;;;;;;;;;;;14.69;44.44;100342.94;5098056;28;1098;-42
2023/11/20 11:11:21;;;;;;;;;;;;;;;16.09;42.81;100341.63;5097855;28;1031;-43
2023/11/20 11:13:48;;;;;;;;;;;;;;;14.90;44.89;100337.06;5098665;28;1164;-42
2023/11/20 11:16:20;;;;;;;;;;;;;;;14.72;44.18;100345.38;5098915;28;1022;-42
2023/11/20 11:18:46;;;;;;;;;;;;;;;14.56;44.84;100343.81;5088476;28;1133;-42
2023/11/20 11:21:12;;;;;;;;;;;;;;;15.79;43.43;100344.69;5097999;28;1142;-42
2023/11/20 11:23:51;;;;;;;;;;;;;;;15.01;44.72;100352.19;5097827;28;1110;-42
2023/11/20 11:26:25;;;;;;;;;;;;;;;15.15;45.05;100348.53;5099188;28;1974;-44
2023/11/20 11:28:55;;;;;;;;;;;;;;;15.13;44.63;100350.47;5085679;28;1182;-45
2023/11/20 11:31:21;;;;;;;;;;;;;;;14.75;44.59;100354.88;5099612;27;1121;-43
2023/11/20 11:34:01;;;;;;;;;;;;;;;14.56;44.27;100350.91;5087454;28;1082;-42
2023/11/20 11:36:27;;;;;;;;;;;;;;;14.57;44.65;100356.09;5081808;28;1031;-45
2023/11/20 11:39:08;;;;;;;;;;;;;;;15.12;44.47;100377.91;5081316;28;1051;-41
2023/11/20 11:41:55;;;;;;;;;;;;;;;14.60;45.06;100360.31;5098701;28;1045;-44
2023/11/20 11:44:23;;;;;;;;;;;;;;;14.44;44.78;100369.38;5097396;28;1903;-40
2023/11/20 11:46:50;;;;;;;;;;;;;;;15.69;43.73;100367.56;5098059;28;1089;-44
2023/11/20 11:49:19;;;;;;;;;;;;;;;15.26;44.31;100366.31;5098488;28;1078;-39
2023/11/20 11:51:57;;;;;;;;;;;;;;;14.76;44.44;100372.47;5098535;28;1085;-42
2023/11/20 11:54:26;;;;;;;;;;;;;;;16.05;43.17;100364.06;5098393;28;1065;-44
2023/11/20 11:57:00;;;;;;;;;;;;;;;15.14;44.76;100363.59;5098393;28;1166;-42
2023/11/20 11:59:35;;;;;;;;;;;;;;;14.78;44.59;100357.34;5098548;28;1086;-40
2023/11/20 12:02:00;;;;;;;;;;;;;;;14.64;44.78;100367.09;5098163;28;1073;-41
2023/11/20 12:04:44;;;;;;;;;;;;;;;15.59;43.86;100361.25;5097646;28;1964;-44
2023/11/20 12:07:10;;;;;;;;;;;;;;;14.99;44.89;100352.31;5098162;28;1093;-41
2023/11/20 12:09:54;;;;;;;;;;;;;;;14.84;44.27;100341.03;5098219;28;1065;-43
2023/11/20 12:12:19;;;;;;;;;;;;;;;14.61;44.05;100351.44;5098024;28;1106;-39
2023/11/20 12:14:45;;;;;;;;;;;;;;;14.56;44.04;100350.91;5097822;28;994;-43
2023/11/20 12:17:10;;;;;;;;;;;;;;;15.62;44.49;100348.63;5098687;28;1038;-43
2023/11/20 12:19:37;;;;;;;;;;;;;;;15.30;44.76;100355.34;5097991;28;1120;-43
2023/11/20 12:22:03;;;;;;;;;;;;;;;14.84;44.97;100354.28;5130780;27;1134;-42
2023/11/20 12:24:29;;;;;;;;;;;;;;;14.98;45.04;100355.91;5097720;28;1897;-44
2023/11/20 12:26:54;;;;;;;;;;;;;;;16.01;43.76;100350.19;5096336;28;1104;-41
2023/11/20 12:29:20;;;;;;;;;;;;;;;15.16;44.97;100351.06;5098093;28;1114;-44
2023/11/20 12:31:46;;;;;;;;;;;;;;;14.88;44.72;100352.25;5084283;28;1023;-44
2023/11/20 12:34:12;;;;;;;;;;;;;;;14.66;44.63;100351.09;5098079;28;1082;-43
2023/11/20 12:36:37;;;;;;;;;;;;;;;14.90;45.02;100343.22;5083218;28;1206;-46
2023/11/20 12:39:03;;;;;;;;;;;;;;;15.93;43.95;100347.25;5130100;27;1574;-42
2023/11/20 12:41:29;;;;;;;;;;;;;;;14.99;45.20;100352.31;5097780;28;1067;-46
2023/11/20 12:43:54;;;;;;;;;;;;;;;15.43;44.98;100349.16;5130171;27;1232;-42